Time;durP1;ratioP1;P1;durP2;ratioP2;P2;SDS_P1;SDS_P2;PMS_P1;PMS_P2;Temp;Humidity;BMP_temperature;BMP_pressure;BME280_temperature;BME280_humidity;BME280_pressure;Samples;Min_cycle;Max_cycle;Signal;HPM_P1;HPM_P2
2021/01/30 00:00:29;;;;;;;51.45;23.80;;;;;;;-1.28;78.79;96927.70;123942;1099;65080;-84
2021/01/30 00:03:06;;;;;;;51.20;23.13;;;;;;;-1.32;78.78;96926.22;124176;1099;64866;-85
2021/01/30 00:05:32;;;;;;;48.80;24.03;;;;;;;-1.34;78.64;96925.45;123914;1102;64956;-83
2021/01/30 00:07:59;;;;;;;51.33;23.40;;;;;;;-1.35;78.98;96924.61;123904;1099;64873;-83
2021/01/30 00:10:26;;;;;;;59.83;24.80;;;;;;;-1.36;78.14;96925.55;123963;1099;64944;-82
2021/01/30 00:12:53;;;;;;;63.70;26.17;;;;;;;-1.36;78.04;96921.14;123879;1102;64920;-85
2021/01/30 00:15:24;;;;;;;51.70;24.47;;;;;;;-1.35;79.43;96916.75;123892;1099;64886;-85
2021/01/30 00:17:52;;;;;;;52.27;23.27;;;;;;;-1.37;78.58;96914.23;123919;1102;64844;-83
2021/01/30 00:20:21;;;;;;;56.20;23.10;;;;;;;-1.41;78.04;96915.33;123910;1102;65080;-85
2021/01/30 00:22:50;;;;;;;50.07;23.87;;;;;;;-1.40;78.77;96911.80;123904;1102;64940;-83
2021/01/30 00:25:24;;;;;;;56.87;25.33;;;;;;;-1.38;79.18;96899.45;123891;1099;64997;-83
2021/01/30 00:27:50;;;;;;;50.95;24.75;;;;;;;-1.37;78.85;96908.99;123898;1102;64950;-86
2021/01/30 00:30:20;;;;;;;60.25;27.50;;;;;;;-1.36;78.61;96901.98;123937;1099;65071;-85
2021/01/30 00:32:48;;;;;;;58.97;26.30;;;;;;;-1.34;79.00;96907.95;123909;1102;64950;-83
2021/01/30 00:35:16;;;;;;;57.90;26.43;;;;;;;-1.31;79.14;96902.55;123879;1099;64942;-82
2021/01/30 00:37:42;;;;;;;57.40;24.03;;;;;;;-1.27;79.42;96900.58;124111;1099;64895;-83
2021/01/30 00:40:09;;;;;;;58.73;27.20;;;;;;;-1.26;78.40;96897.90;123916;1099;64998;-83
2021/01/30 00:42:36;;;;;;;54.20;26.70;;;;;;;-1.27;78.08;96900.58;123893;1099;64889;-82
2021/01/30 00:45:09;;;;;;;64.80;26.57;;;;;;;-1.27;78.32;96900.58;123846;1102;65103;-86
2021/01/30 00:47:36;;;;;;;51.73;26.10;;;;;;;-1.27;79.15;96900.58;123966;1099;64998;-82
2021/01/30 00:50:04;;;;;;;49.70;25.80;;;;;;;-1.34;78.16;96889.63;123895;1102;64943;-84
2021/01/30 00:52:32;;;;;;;64.85;31.55;;;;;;;-1.40;79.01;96895.23;123943;1102;64902;-86
2021/01/30 00:55:17;;;;;;;57.60;29.17;;;;;;;-1.40;79.20;96890.86;123936;1099;65001;-86
2021/01/30 00:57:46;;;;;;;70.40;30.05;;;;;;;-1.39;78.24;96896.94;123960;1099;64969;-82
2021/01/30 01:00:23;;;;;;;58.80;29.27;;;;;;;-1.44;78.86;96884.11;123951;1102;64951;-82
2021/01/30 01:02:51;;;;;;;74.90;35.50;;;;;;;-1.43;78.82;96893.64;124463;1099;64856;-83
2021/01/30 01:05:19;;;;;;;72.63;34.50;;;;;;;-1.47;79.04;96891.28;124374;1100;64898;-81
2021/01/30 01:07:46;;;;;;;65.93;30.50;;;;;;;-1.44;78.49;96884.11;124290;1102;64943;-82
2021/01/30 01:10:15;;;;;;;62.15;28.85;;;;;;;-1.41;79.53;96883.07;123884;1102;65026;-83
2021/01/30 01:12:41;;;;;;;63.00;31.20;;;;;;;-1.33;79.77;96886.11;123879;1102;64978;-83
2021/01/30 01:15:09;;;;;;;55.93;28.17;;;;;;;-1.29;79.45;96886.75;123871;1102;64873;-84
2021/01/30 01:17:36;;;;;;;62.40;29.17;;;;;;;-1.27;78.94;96880.51;123956;1102;65000;-84
2021/01/30 01:20:10;;;;;;;58.20;28.10;;;;;;;-1.26;79.38;96886.58;123878;1099;64979;-86
2021/01/30 01:22:36;;;;;;;62.40;27.83;;;;;;;-1.25;78.79;96880.41;123952;1100;64880;-83
2021/01/30 01:25:04;;;;;;;59.70;28.17;;;;;;;-1.32;79.03;96885.17;123851;1099;64885;-86
2021/01/30 01:27:31;;;;;;;58.95;28.90;;;;;;;-1.32;79.14;96886.95;123879;1099;64888;-86
2021/01/30 01:29:58;;;;;;;69.27;35.83;;;;;;;-1.32;78.25;96881.70;124107;1099;64946;-82
2021/01/30 01:32:25;;;;;;;65.57;32.17;;;;;;;-1.34;79.28;96883.55;123906;1102;64898;-83
2021/01/30 01:34:51;;;;;;;249.77;105.00;;;;;;;-1.39;79.16;96870.76;124083;1099;65035;-82
2021/01/30 01:37:18;;;;;;;176.27;79.77;;;;;;;-1.41;79.04;96862.97;123930;1099;64950;-84
2021/01/30 01:39:45;;;;;;;112.35;53.20;;;;;;;-1.42;79.12;96871.77;123968;1099;64905;-83
2021/01/30 01:42:17;;;;;;;86.83;44.00;;;;;;;-1.44;79.06;96878.88;123946;1102;64899;-83
2021/01/30 01:44:44;;;;;;;92.00;47.50;;;;;;;-1.47;79.07;96872.95;124136;1099;64899;-85
2021/01/30 01:47:22;;;;;;;98.67;49.50;;;;;;;-1.43;79.42;96875.31;123921;1102;65065;-83
2021/01/30 01:49:50;;;;;;;81.10;41.73;;;;;;;-1.39;79.40;96871.59;124165;1099;65187;-83
2021/01/30 01:52:36;;;;;;;68.50;33.90;;;;;;;-1.39;78.34;96871.59;123985;1102;64882;-83
2021/01/30 01:55:18;;;;;;;76.27;34.70;;;;;;;-1.36;79.47;96862.70;123979;1099;64867;-86
2021/01/30 01:57:53;;;;;;;74.37;36.13;;;;;;;-1.34;79.40;96854.75;123895;1099;64998;-84
2021/01/30 02:00:23;;;;;;;71.67;31.33;;;;;;;-1.33;79.62;96859.92;124121;1099;64915;-83
2021/01/30 02:02:53;;;;;;;69.67;33.93;;;;;;;-1.33;79.24;96856.46;124178;1097;64912;-84
2021/01/30 02:05:28;;;;;;;70.10;33.53;;;;;;;-1.37;78.33;96848.77;123922;1099;64950;-85
2021/01/30 02:07:59;;;;;;;78.17;37.13;;;;;;;-1.40;79.51;96850.72;124129;1099;64847;-83
2021/01/30 02:10:29;;;;;;;75.10;34.63;;;;;;;-1.41;79.05;96844.64;123952;1099;64982;-83
2021/01/30 02:13:03;;;;;;;64.37;31.47;;;;;;;-1.34;79.68;96841.66;123949;1102;64930;-82
2021/01/30 02:15:31;;;;;;;65.52;31.50;;;;;;;-1.28;79.15;96841.30;123942;1099;64908;-85
2021/01/30 02:18:25;;;;;;;66.85;31.55;;;;;;;-1.27;79.22;96828.14;123879;1102;64946;-84
2021/01/30 02:21:36;;;;;;;65.47;30.17;;;;;;;-1.27;79.40;96822.90;124150;1098;64892;-85
2021/01/30 02:24:52;;;;;;;59.50;27.67;;;;;;;-1.23;79.44;96828.77;123898;1099;64918;-86
2021/01/30 02:27:56;;;;;;;56.17;27.27;;;;;;;-1.25;79.72;96814.94;124131;1099;64825;-83
2021/01/30 02:30:47;;;;;;;56.60;28.93;;;;;;;-1.30;79.10;96804.73;124178;1099;64941;-83
2021/01/30 02:33:51;;;;;;;63.30;28.87;;;;;;;-1.28;78.94;96794.16;124131;1099;64950;-84
2021/01/30 02:36:20;;;;;;;53.50;26.63;;;;;;;-1.23;78.89;96792.11;124131;1099;64857;-83
2021/01/30 02:39:07;;;;;;;61.27;28.67;;;;;;;-1.23;78.28;96792.11;124149;1099;64972;-83
2021/01/30 02:41:38;;;;;;;59.63;29.47;;;;;;;-1.21;79.79;96795.47;124101;1099;64933;-85
2021/01/30 02:44:09;;;;;;;58.93;27.63;;;;;;;-1.18;79.83;96788.28;124110;1099;65023;-84
2021/01/30 02:46:46;;;;;;;57.87;26.50;;;;;;;-1.17;78.97;96782.10;124110;1099;64965;-82
2021/01/30 02:49:20;;;;;;;57.80;26.00;;;;;;;-1.14;79.55;96783.71;124157;1099;64909;-86
2021/01/30 02:51:52;;;;;;;52.30;24.97;;;;;;;-1.18;79.41;96793.52;124072;1098;64889;-82
2021/01/30 02:54:19;;;;;;;58.85;29.95;;;;;;;-1.28;79.28;96787.14;124146;1099;65037;-83
2021/01/30 02:56:47;;;;;;;63.27;30.87;;;;;;;-1.33;78.95;96785.77;124184;1099;65336;-83
2021/01/30 02:59:18;;;;;;;62.83;31.10;;;;;;;-1.29;79.66;96782.01;123938;1099;65291;-85
2021/01/30 03:01:45;;;;;;;69.23;31.73;;;;;;;-1.26;79.12;96792.31;123904;1102;64889;-84
2021/01/30 03:04:20;;;;;;;58.70;26.05;;;;;;;-1.30;79.02;96783.78;124123;1099;64911;-83
2021/01/30 03:06:58;;;;;;;56.10;28.83;;;;;;;-1.32;78.68;96782.21;123909;1099;64962;-83
2021/01/30 03:09:40;;;;;;;70.60;31.55;;;;;;;-1.30;78.75;96786.41;123925;1099;65010;-82
2021/01/30 03:12:11;;;;;;;70.87;33.80;;;;;;;-1.30;79.08;96786.41;123948;1099;64895;-84
2021/01/30 03:14:47;;;;;;;72.10;34.60;;;;;;;-1.26;79.51;96794.93;124133;1098;64994;-83
2021/01/30 03:17:16;;;;;;;67.97;31.27;;;;;;;-1.29;79.57;96777.61;124123;1099;64966;-83
2021/01/30 03:19:44;;;;;;;69.57;33.97;;;;;;;-1.24;79.81;96779.95;123983;1100;64979;-84
2021/01/30 03:22:13;;;;;;;67.57;31.43;;;;;;;-1.25;79.59;96771.27;124000;1099;64999;-84
2021/01/30 03:24:45;;;;;;;66.45;32.65;;;;;;;-1.27;78.67;96775.77;124180;1099;65004;-86
2021/01/30 03:27:30;;;;;;;67.60;32.20;;;;;;;-1.34;79.57;96770.97;123926;1099;64966;-86
2021/01/30 03:29:58;;;;;;;67.50;33.40;;;;;;;-1.33;78.77;96765.66;123942;1102;65413;-83
2021/01/30 03:32:28;;;;;;;67.17;33.20;;;;;;;-1.33;79.56;96760.42;123914;1099;65087;-82
2021/01/30 03:34:57;;;;;;;67.83;32.13;;;;;;;-1.34;78.81;96753.48;123911;1100;65013;-83
2021/01/30 03:37:24;;;;;;;75.80;34.53;;;;;;;-1.37;79.59;96754.52;123929;1099;65007;-83
2021/01/30 03:39:50;;;;;;;75.35;34.40;;;;;;;-1.42;78.50;96746.09;123902;1099;64974;-85
2021/01/30 03:42:17;;;;;;;65.10;31.50;;;;;;;-1.44;78.50;96741.91;123931;1102;64981;-83
2021/01/30 03:44:44;;;;;;;69.83;34.60;;;;;;;-1.45;79.32;96751.54;124075;1099;64937;-84
2021/01/30 03:47:12;;;;;;;65.83;32.10;;;;;;;-1.42;78.84;96737.41;123891;1102;64943;-83
2021/01/30 03:49:38;;;;;;;69.70;33.20;;;;;;;-1.44;78.98;96737.51;123895;1099;65042;-81
2021/01/30 03:52:04;;;;;;;67.10;31.65;;;;;;;-1.42;79.30;96742.64;124081;1099;64947;-83
2021/01/30 03:54:31;;;;;;;72.20;33.87;;;;;;;-1.44;79.92;96742.75;123906;1098;64962;-86
2021/01/30 03:56:59;;;;;;;72.30;34.80;;;;;;;-1.37;79.90;96749.28;124105;1099;64908;-84
2021/01/30 03:59:28;;;;;;;63.90;32.40;;;;;;;-1.35;79.52;96751.80;123840;1099;64853;-83
2021/01/30 04:01:55;;;;;;;65.50;31.43;;;;;;;-1.38;79.22;96747.61;123907;1099;64985;-83
2021/01/30 04:04:22;;;;;;;63.53;29.07;;;;;;;-1.41;79.72;96763.48;124071;1099;65340;-84
2021/01/30 04:06:49;;;;;;;61.57;30.73;;;;;;;-1.50;79.36;96752.75;123897;1099;64975;-84
2021/01/30 04:09:19;;;;;;;52.60;24.37;;;;;;;-1.52;78.91;96758.08;124189;1099;65069;-83
2021/01/30 04:11:46;;;;;;;69.27;33.33;;;;;;;-1.57;79.66;96754.89;124172;1099;64914;-83
2021/01/30 04:14:14;;;;;;;61.30;31.10;;;;;;;-1.53;79.68;96752.91;123916;1099;64966;-83
2021/01/30 04:16:40;;;;;;;76.57;36.70;;;;;;;-1.50;79.63;96750.97;123912;1099;65348;-82
2021/01/30 04:19:07;;;;;;;68.10;32.40;;;;;;;-1.47;79.82;96744.69;123898;1102;64982;-82
2021/01/30 04:21:33;;;;;;;78.30;36.47;;;;;;;-1.46;79.28;96741.17;123852;1099;65008;-84
2021/01/30 04:24:00;;;;;;;76.85;34.40;;;;;;;-1.45;79.12;96733.21;124172;1099;64911;-84
2021/01/30 04:26:26;;;;;;;80.47;37.67;;;;;;;-1.44;79.23;96739.28;124126;1099;64835;-83
2021/01/30 04:28:53;;;;;;;154.37;65.23;;;;;;;-1.43;78.87;96733.95;123921;1101;66161;-83
2021/01/30 04:31:20;;;;;;;171.40;75.05;;;;;;;-1.41;79.16;96736.47;123896;1102;64908;-84
2021/01/30 04:33:48;;;;;;;148.03;61.30;;;;;;;-1.45;79.22;96742.84;123881;1102;65078;-83
2021/01/30 04:36:16;;;;;;;158.47;64.03;;;;;;;-1.46;79.68;96754.25;124020;1099;64930;-84
2021/01/30 04:38:43;;;;;;;89.27;37.57;;;;;;;-1.50;78.84;96753.59;123934;1100;64991;-84
2021/01/30 04:41:35;;;;;;;67.33;30.60;;;;;;;-1.55;79.71;96754.80;123936;1099;64921;-87
2021/01/30 04:44:10;;;;;;;62.10;28.03;;;;;;;-1.65;79.03;96754.52;124124;1099;64895;-86
2021/01/30 04:47:08;;;;;;;55.15;27.32;;;;;;;-1.71;79.79;96757.50;123972;1099;64937;-83
2021/01/30 04:49:54;;;;;;;58.40;27.90;;;;;;;-1.74;79.37;96752.44;123933;1102;64961;-84
2021/01/30 04:52:20;;;;;;;47.03;22.73;;;;;;;-1.77;78.90;96761.33;124143;1099;64867;-87
2021/01/30 04:55:06;;;;;;;45.77;24.00;;;;;;;-1.84;79.45;96760.00;123913;1099;64905;-83
2021/01/30 04:57:44;;;;;;;42.27;22.82;;;;;;;-1.91;79.41;96764.76;123933;1099;64911;-85
2021/01/30 05:00:29;;;;;;;47.90;23.90;;;;;;;-1.98;80.02;96758.17;123908;1099;65065;-84
2021/01/30 05:03:09;;;;;;;;;;;;;;;-1.99;78.98;96763.50;124134;1099;64864;-84
2021/01/30 05:05:39;;;;;;;43.63;23.27;;;;;;;-2.02;80.13;96761.92;123899;1099;64892;-84
2021/01/30 05:08:12;;;;;;;50.10;24.77;;;;;;;-2.02;80.19;96761.92;123891;1099;64924;-84
2021/01/30 05:10:45;;;;;;;47.17;22.47;;;;;;;-2.04;79.10;96763.77;123894;1099;65101;-84
2021/01/30 05:13:31;;;;;;;52.23;25.87;;;;;;;-2.06;80.26;96757.78;123875;1102;64982;-87
2021/01/30 05:16:05;;;;;;;59.73;27.43;;;;;;;-2.06;80.03;96764.80;124138;1099;64937;-85
2021/01/30 05:18:34;;;;;;;52.77;25.40;;;;;;;-2.06;79.43;96768.25;123902;1099;64925;-87
2021/01/30 05:21:15;;;;;;;55.27;25.83;;;;;;;-2.08;79.48;96772.73;123929;1099;64978;-84
2021/01/30 05:23:47;;;;;;;50.83;25.67;;;;;;;-2.12;79.90;96780.84;123925;1099;65087;-87
2021/01/30 05:26:28;;;;;;;46.90;24.20;;;;;;;-2.16;79.50;96780.19;123869;1099;64906;-87
2021/01/30 05:29:06;;;;;;;46.83;25.07;;;;;;;-2.19;79.75;96786.42;123892;1099;64892;-86
2021/01/30 05:31:54;;;;;;;56.93;27.90;;;;;;;-2.21;79.50;96787.45;123888;1102;64899;-86
2021/01/30 05:34:43;;;;;;;50.93;23.13;;;;;;;-2.25;79.19;96785.92;124162;1099;64978;-86
2021/01/30 05:37:19;;;;;;;62.60;29.30;;;;;;;-2.32;80.10;96795.89;124109;1099;64888;-85
2021/01/30 05:39:48;;;;;;;68.83;31.83;;;;;;;-2.31;80.11;96801.96;123914;1099;64901;-84
2021/01/30 05:42:40;;;;;;;62.93;30.77;;;;;;;-2.30;79.50;96806.25;124185;1099;64911;-85
2021/01/30 05:45:21;;;;;;;57.13;29.03;;;;;;;-2.27;79.81;96808.72;123935;1099;64881;-85
2021/01/30 05:47:51;;;;;;;54.60;27.17;;;;;;;-2.30;79.84;96814.94;124171;1099;64857;-85
2021/01/30 05:50:31;;;;;;;54.23;27.40;;;;;;;-2.30;79.80;96828.02;124122;1099;65080;-84
2021/01/30 05:52:59;;;;;;;54.33;27.40;;;;;;;-2.32;79.94;96829.04;123906;1098;65023;-84
2021/01/30 05:55:30;;;;;;;58.17;28.00;;;;;;;-2.33;79.41;96829.97;123971;1099;64925;-85
2021/01/30 05:58:03;;;;;;;55.23;26.83;;;;;;;-2.35;79.34;96837.91;124167;1099;64889;-84
2021/01/30 06:00:29;;;;;;;59.80;31.70;;;;;;;-2.35;79.46;96842.30;123936;1099;65346;-84
2021/01/30 06:03:11;;;;;;;127.93;88.80;;;;;;;-2.37;79.54;96854.58;123892;1102;64934;-85
2021/01/30 06:06:07;;;;;;;52.80;27.73;;;;;;;-2.44;79.86;96854.08;123902;1099;65055;-85
2021/01/30 06:08:34;;;;;;;47.77;24.03;;;;;;;-2.49;79.74;96859.55;123926;1099;64946;-89
2021/01/30 06:11:09;;;;;;;53.13;25.97;;;;;;;-2.51;80.08;96871.88;123916;1102;64982;-85
2021/01/30 06:13:51;;;;;;;68.45;34.03;;;;;;;-2.51;79.27;96871.88;123918;1098;64891;-84
2021/01/30 06:16:36;;;;;;;59.07;29.50;;;;;;;-2.54;79.59;96879.05;124168;1099;65010;-86
2021/01/30 06:19:15;;;;;;;57.55;28.17;;;;;;;-2.59;79.97;96894.97;124056;1099;65055;-85
2021/01/30 06:21:43;;;;;;;62.90;28.27;;;;;;;-2.60;79.54;96893.29;123913;1099;64895;-87
2021/01/30 06:24:27;;;;;;;56.90;32.03;;;;;;;-2.63;79.45;96900.44;123944;1102;65033;-84
2021/01/30 06:26:55;;;;;;;63.37;29.33;;;;;;;-2.71;79.70;96913.92;124120;1099;64921;-85
2021/01/30 06:29:37;;;;;;;76.50;39.13;;;;;;;-2.79;79.60;96930.00;123988;1100;64966;-88
2021/01/30 06:32:27;;;;;;;58.50;30.85;;;;;;;-2.83;79.76;96938.07;124060;1099;64975;-86
2021/01/30 06:35:07;;;;;;;53.13;25.50;;;;;;;-2.85;79.29;96943.38;123901;1099;65020;-86
2021/01/30 06:37:40;;;;;;;46.47;24.53;;;;;;;-2.88;79.87;96958.36;123872;1099;65301;-87
2021/01/30 06:40:26;;;;;;;76.53;35.93;;;;;;;-2.90;79.25;96968.89;123914;1102;65019;-84
2021/01/30 06:43:03;;;;;;;52.37;25.33;;;;;;;-2.93;79.36;96983.86;124145;1099;64966;-85
2021/01/30 06:45:39;;;;;;;46.77;22.50;;;;;;;-2.95;79.45;96993.55;124228;1099;65387;-84
2021/01/30 06:48:08;;;;;;;40.00;21.13;;;;;;;-2.97;79.65;96998.02;124152;1099;65372;-84
2021/01/30 06:50:43;;;;;;;34.97;17.27;;;;;;;-3.00;79.74;97015.51;123939;1102;65077;-85
2021/01/30 06:53:27;;;;;;;25.43;14.23;;;;;;;-3.00;79.86;97012.05;124063;1099;64786;-86
2021/01/30 06:55:54;;;;;;;22.85;13.83;;;;;;;-3.03;79.66;97012.22;124076;1099;65017;-84
2021/01/30 06:58:27;;;;;;;19.23;10.67;;;;;;;-3.04;79.65;97032.27;123858;1099;65112;-84
2021/01/30 07:01:09;;;;;;;30.10;13.50;;;;;;;-3.04;79.48;97028.82;123863;1099;64981;-86
2021/01/30 07:03:57;;;;;;;20.07;10.67;;;;;;;-3.05;79.46;97046.25;123829;1099;64914;-86
2021/01/30 07:06:45;;;;;;;16.80;8.53;;;;;;;-3.04;79.44;97053.16;124179;1099;64902;-84
2021/01/30 07:09:52;;;;;;;21.10;10.17;;;;;;;-3.05;79.18;97064.53;123933;1102;64956;-86
2021/01/30 07:12:23;;;;;;;24.93;9.63;;;;;;;-3.01;79.38;97063.44;123832;1102;64921;-84
2021/01/30 07:15:21;;;;;;;28.77;11.73;;;;;;;-3.02;79.54;97060.91;123930;1099;64927;-84
2021/01/30 07:17:56;;;;;;;26.93;12.57;;;;;;;-3.03;79.44;97073.13;123859;1099;64953;-84
2021/01/30 07:20:47;;;;;;;25.53;12.33;;;;;;;-3.02;79.63;97087.03;124176;1099;64912;-87
2021/01/30 07:23:42;;;;;;;31.30;15.53;;;;;;;-3.04;78.77;97100.17;124123;1099;64921;-84
2021/01/30 07:26:16;;;;;;;31.97;15.80;;;;;;;-3.07;78.94;97091.63;123917;1099;64879;-84
2021/01/30 07:28:52;;;;;;;28.47;14.37;;;;;;;-3.02;79.41;97097.47;123896;1099;64933;-85
2021/01/30 07:31:29;;;;;;;28.07;13.17;;;;;;;-2.98;79.30;97104.25;124224;1102;64975;-85
2021/01/30 07:34:14;;;;;;;34.63;17.90;;;;;;;-2.98;79.37;97113.85;123934;1100;64889;-84
2021/01/30 07:36:53;;;;;;;42.60;20.63;;;;;;;-2.93;79.46;97127.50;123934;1099;64912;-84
2021/01/30 07:39:29;;;;;;;39.33;18.67;;;;;;;-2.88;79.34;97131.59;123893;1099;65421;-85
2021/01/30 07:42:13;;;;;;;42.13;17.10;;;;;;;-2.84;79.58;97148.81;123913;1099;65001;-84
2021/01/30 07:45:17;;;;;;;50.55;22.77;;;;;;;-2.83;78.69;97144.42;123888;1099;64908;-85
2021/01/30 07:48:02;;;;;;;40.10;19.87;;;;;;;-2.80;78.48;97157.33;124119;1099;64937;-88
2021/01/30 07:50:34;;;;;;;40.63;19.80;;;;;;;-2.76;78.95;97166.71;124114;1099;64940;-87
2021/01/30 07:53:20;;;;;;;45.50;20.93;;;;;;;-2.71;79.26;97164.73;123864;1099;64904;-87
2021/01/30 07:55:49;;;;;;;;;;;;;;;-2.66;79.40;97170.58;123944;1099;64909;-84
2021/01/30 07:58:22;;;;;;;57.80;24.93;;;;;;;-2.64;78.72;97181.80;123953;1099;64831;-84
2021/01/30 08:01:02;;;;;;;67.33;27.87;;;;;;;-2.62;78.90;97187.78;124123;1099;65288;-84
2021/01/30 08:03:57;;;;;;;54.00;24.23;;;;;;;-2.52;79.31;97180.34;123918;1099;65017;-84
2021/01/30 08:06:30;;;;;;;;;;;;;;;-2.42;78.78;97191.17;123455;1101;64845;-85
2021/01/30 08:09:40;;;;;;;62.90;28.60;;;;;;;-2.32;78.46;97195.03;123547;1102;65046;-84
2021/01/30 08:12:21;;;;;;;63.23;29.03;;;;;;;-2.25;79.38;97199.87;123444;1102;64903;-83
2021/01/30 08:15:08;;;;;;;66.83;28.07;;;;;;;-2.20;78.54;97210.95;123832;1102;65100;-83
2021/01/30 08:17:53;;;;;;;60.13;27.10;;;;;;;-2.10;79.01;97213.08;123522;1103;65026;-86
2021/01/30 08:20:28;;;;;;;102.47;41.77;;;;;;;-2.01;78.82;97223.09;123524;1102;64920;-85
2021/01/30 08:23:07;;;;;;;80.65;36.65;;;;;;;-1.87;78.92;97232.84;123436;1102;65155;-84
2021/01/30 08:25:46;;;;;;;103.90;43.13;;;;;;;-1.83;79.29;97237.86;123528;1102;65004;-84
2021/01/30 08:28:37;;;;;;;98.73;42.70;;;;;;;-1.74;78.76;97232.13;123509;1102;64958;-85
2021/01/30 08:31:03;;;;;;;89.93;37.80;;;;;;;-1.71;79.27;97233.77;123517;1105;65346;-89
2021/01/30 08:34:01;;;;;;;92.50;42.87;;;;;;;-1.69;78.40;97242.37;123541;1102;65033;-82
2021/01/30 08:36:40;;;;;;;89.87;40.17;;;;;;;-1.61;79.22;97253.28;123426;1102;65135;-85
2021/01/30 08:39:37;;;;;;;84.10;40.50;;;;;;;-1.56;78.42;97261.74;123399;1105;65077;-84
2021/01/30 08:42:20;;;;;;;75.75;35.90;;;;;;;-1.58;78.38;97271.45;123395;1105;65062;-90
2021/01/30 08:44:57;;;;;;;74.43;37.33;;;;;;;-1.53;78.69;97274.66;123856;1102;65355;-85
2021/01/30 08:47:29;;;;;;;75.27;35.80;;;;;;;-1.48;78.45;97280.51;123893;1102;65021;-85
2021/01/30 08:49:55;;;;;;;73.93;37.13;;;;;;;-1.46;78.40;97283.06;123899;1100;65001;-84
2021/01/30 08:52:33;;;;;;;68.43;34.03;;;;;;;-1.44;78.20;97287.28;123830;1100;65011;-89
2021/01/30 08:55:28;;;;;;;72.87;35.93;;;;;;;-1.53;77.60;97295.59;123881;1102;64898;-85
2021/01/30 08:57:56;;;;;;;65.00;32.67;;;;;;;-1.49;78.43;97298.92;123841;1102;64857;-87
2021/01/30 09:00:26;;;;;;;71.90;34.50;;;;;;;-1.41;78.15;97309.83;123855;1100;64982;-84
2021/01/30 09:02:52;;;;;;;62.37;32.70;;;;;;;-1.23;78.38;97310.65;123808;1102;64905;-87
2021/01/30 09:05:24;;;;;;;61.63;34.63;;;;;;;-1.06;78.90;97323.71;123904;1099;64915;-86
2021/01/30 09:07:57;;;;;;;57.07;31.13;;;;;;;-0.91;77.56;97322.88;124074;1100;64968;-86
2021/01/30 09:10:33;;;;;;;59.90;33.50;;;;;;;-0.84;77.75;97324.23;123904;1099;64979;-84
2021/01/30 09:13:06;;;;;;;58.03;31.83;;;;;;;-0.66;77.80;97322.40;123855;1099;64985;-85
2021/01/30 09:15:42;;;;;;;61.10;31.97;;;;;;;-0.53;77.64;97329.59;123931;1099;64947;-87
2021/01/30 09:18:38;;;;;;;61.67;32.93;;;;;;;-0.58;77.36;97324.59;124025;1099;65357;-88
2021/01/30 09:21:16;;;;;;;57.17;31.97;;;;;;;-0.49;78.10;97326.73;124076;1099;64918;-84
2021/01/30 09:23:49;;;;;;;66.70;33.17;;;;;;;-0.27;77.67;97305.38;124296;1099;64994;-87
2021/01/30 09:26:53;;;;;;;58.13;31.10;;;;;;;0.06;77.14;97317.50;124160;1099;65084;-85
2021/01/30 09:29:29;;;;;;;55.77;31.57;;;;;;;0.38;76.61;97321.76;124340;1099;64873;-85
2021/01/30 09:31:57;;;;;;;52.17;26.13;;;;;;;0.50;75.93;97328.05;124125;1099;64898;-88
2021/01/30 09:34:29;;;;;;;55.10;30.40;;;;;;;0.51;76.73;97332.39;124084;1099;64924;-85
2021/01/30 09:36:55;;;;;;;64.13;35.07;;;;;;;0.56;76.31;97337.34;124068;1099;64892;-86
2021/01/30 09:39:25;;;;;;;63.47;35.33;;;;;;;0.60;75.76;97352.00;123993;1102;65036;-89
2021/01/30 09:42:06;;;;;;;56.40;29.37;;;;;;;0.63;75.61;97352.64;124107;1099;64991;-89
2021/01/30 09:44:33;;;;;;;84.57;44.67;;;;;;;0.72;75.66;97353.90;123993;1099;65349;-86
2021/01/30 09:47:04;;;;;;;74.57;39.30;;;;;;;1.00;76.38;97355.70;124225;1099;64937;-86
2021/01/30 09:49:37;;;;;;;110.80;54.57;;;;;;;1.10;75.48;97356.00;124118;1102;65033;-85
2021/01/30 09:52:05;;;;;;;81.63;44.63;;;;;;;0.89;75.00;97358.13;124725;1099;64728;-87
2021/01/30 09:54:32;;;;;;;63.37;36.93;;;;;;;0.84;75.88;97362.84;124115;1100;64918;-87
2021/01/30 09:57:08;;;;;;;91.35;48.05;;;;;;;0.72;75.16;97373.13;124156;1100;64949;-89
2021/01/30 09:59:35;;;;;;;73.05;40.05;;;;;;;0.62;75.31;97371.13;124732;1099;64885;-86
2021/01/30 10:02:10;;;;;;;65.65;31.40;;;;;;;0.56;75.59;97382.00;124339;1099;64975;-91
2021/01/30 10:04:37;;;;;;;73.45;42.00;;;;;;;0.49;75.36;97377.10;123871;1102;64895;-87
2021/01/30 10:07:14;;;;;;;83.75;46.45;;;;;;;0.61;75.73;97382.58;124215;1099;64972;-93
2021/01/30 10:09:47;;;;;;;87.83;50.50;;;;;;;0.59;76.87;97385.30;123910;1099;64928;-89
2021/01/30 10:12:20;;;;;;;67.27;38.90;;;;;;;0.59;75.72;97385.30;124187;1099;64972;-89
2021/01/30 10:14:57;;;;;;;57.57;36.43;;;;;;;0.61;75.43;97380.80;124263;1100;64870;-88
2021/01/30 10:17:41;;;;;;;71.03;41.33;;;;;;;0.75;76.61;97386.08;123933;1099;64944;-87
2021/01/30 10:20:15;;;;;;;81.40;46.33;;;;;;;0.81;75.63;97388.34;123977;1099;64991;-88
2021/01/30 10:22:49;;;;;;;70.40;42.37;;;;;;;0.66;75.26;97389.26;123944;1102;64908;-91
2021/01/30 10:25:27;;;;;;;64.73;40.03;;;;;;;0.51;75.82;97398.05;124011;1102;64879;-86
2021/01/30 10:28:10;;;;;;;59.00;35.37;;;;;;;0.76;75.36;97405.31;123885;1102;64953;-94
2021/01/30 10:30:38;;;;;;;101.27;55.43;;;;;;;1.18;76.08;97401.91;124197;1099;65166;-87
2021/01/30 10:33:09;;;;;;;66.07;42.67;;;;;;;1.76;75.55;97395.67;123825;1099;64941;-90
2021/01/30 10:35:45;;;;;;;62.10;38.80;;;;;;;2.10;75.54;97409.31;123888;1099;64911;-88
2021/01/30 10:38:17;;;;;;;57.90;34.57;;;;;;;1.94;75.16;97408.63;124367;1102;64944;-88
2021/01/30 10:40:49;;;;;;;57.93;34.33;;;;;;;1.56;75.29;97411.87;124321;1099;64998;-88
2021/01/30 10:43:31;;;;;;;45.00;26.53;;;;;;;1.33;73.86;97419.38;124173;1102;64993;-89
2021/01/30 10:46:01;;;;;;;50.03;30.33;;;;;;;1.08;74.72;97421.80;124601;1099;64888;-91
2021/01/30 10:48:34;;;;;;;55.47;31.77;;;;;;;1.13;76.00;97430.26;124322;1101;64988;-89
2021/01/30 10:51:05;;;;;;;61.33;36.00;;;;;;;1.12;75.14;97428.57;123963;1099;64883;-88
2021/01/30 10:53:41;;;;;;;51.45;30.75;;;;;;;0.97;74.57;97445.27;124074;1099;64905;-88
2021/01/30 10:56:20;;;;;;;55.13;30.93;;;;;;;0.95;75.79;97442.70;124203;1099;65007;-91
2021/01/30 10:58:52;;;;;;;59.30;35.30;;;;;;;1.04;76.15;97454.48;124182;1099;65212;-90
2021/01/30 11:01:18;;;;;;;65.17;34.97;;;;;;;1.22;75.20;97449.91;124037;1099;64978;-88
2021/01/30 11:03:56;;;;;;;55.27;28.73;;;;;;;1.32;75.69;97459.77;124266;1099;64917;-91
2021/01/30 11:06:41;;;;;;;56.40;30.20;;;;;;;1.39;75.04;97459.40;124034;1102;65007;-93
2021/01/30 11:09:24;;;;;;;74.60;37.43;;;;;;;1.27;74.83;97460.98;124114;1099;64926;-90
2021/01/30 11:12:18;;;;;;;63.77;33.47;;;;;;;1.07;74.12;97468.27;123972;1099;64998;-91
2021/01/30 11:14:45;;;;;;;77.83;34.83;;;;;;;0.83;74.83;97460.98;124255;1099;64895;-91
2021/01/30 11:17:25;;;;;;;51.87;28.20;;;;;;;0.74;75.19;97470.25;123851;1099;64896;-88
2021/01/30 11:19:52;;;;;;;75.67;36.07;;;;;;;0.77;75.99;97476.19;123865;1099;64921;-87
2021/01/30 11:22:24;;;;;;;142.00;53.00;;;;;;;0.83;75.12;97474.12;123989;1099;65040;-89
2021/01/30 11:25:06;;;;;;;122.10;49.03;;;;;;;0.80;75.33;97477.78;124056;1099;65055;-89
2021/01/30 11:27:32;;;;;;;166.40;67.03;;;;;;;0.69;75.95;97481.02;124195;1099;64990;-92
2021/01/30 11:30:18;;;;;;;122.70;52.97;;;;;;;0.64;76.45;97479.62;123987;1099;64873;-90
2021/01/30 11:33:14;;;;;;;74.97;33.80;;;;;;;0.60;76.13;97499.10;124219;1099;65339;-91
2021/01/30 11:35:45;;;;;;;60.48;30.17;;;;;;;0.44;75.93;97494.70;124013;1099;64901;-91
2021/01/30 11:38:16;;;;;;;51.67;28.23;;;;;;;0.39;76.60;97501.16;123990;1100;64881;-89
2021/01/30 11:40:43;;;;;;;45.05;26.30;;;;;;;0.36;75.86;97501.32;123950;1099;64988;-89
2021/01/30 11:43:12;;;;;;;44.47;21.30;;;;;;;0.39;77.00;97511.67;123978;1099;64911;-91
2021/01/30 11:45:38;;;;;;;35.80;20.30;;;;;;;0.43;76.83;97508.77;123924;1099;64994;-91
2021/01/30 11:48:05;;;;;;;41.73;21.97;;;;;;;0.44;76.51;97507.83;123894;1102;65154;-90